createdAt,value
2023-03-18T00:01:10.741Z,71.20
2023-03-18T00:06:16.731Z,71.70
2023-03-18T00:11:21.511Z,72.10
2023-03-18T00:16:24.235Z,72.50
2023-03-18T00:21:27.085Z,72.80
2023-03-18T00:26:29.783Z,73.00
2023-03-18T00:31:32.132Z,72.40
2023-03-18T00:36:34.679Z,72.90
2023-03-18T00:41:38.156Z,72.80
2023-03-18T00:46:40.994Z,72.60
2023-03-18T00:51:43.767Z,72.70
2023-03-18T00:56:46.336Z,72.80
2023-03-18T01:01:48.897Z,72.70
2023-03-18T01:06:53.270Z,73.00
2023-03-18T01:11:55.655Z,73.20
2023-03-18T01:16:58.158Z,73.00
2023-03-18T01:22:01.525Z,73.80
2023-03-18T01:27:06.306Z,73.70
2023-03-18T01:32:10.709Z,73.60
2023-03-18T01:37:13.810Z,73.60
2023-03-18T01:42:20.214Z,73.40
2023-03-18T01:47:23.353Z,74.40
2023-03-18T01:52:32.192Z,74.30
2023-03-18T01:57:35.985Z,74.30
2023-03-18T02:02:40.307Z,75.30
2023-03-18T02:07:44.226Z,75.60
2023-03-18T02:12:50.883Z,75.70
2023-03-18T02:18:10.884Z,76.30
2023-03-18T02:23:29.798Z,76.30
2023-03-18T02:28:33.800Z,77.10
2023-03-18T02:33:39.570Z,77.80
2023-03-18T02:38:44.182Z,77.80
2023-03-18T02:43:50.717Z,77.70
2023-03-18T02:48:53.952Z,78.40
2023-03-18T02:54:02.685Z,77.50
2023-03-18T02:59:05.786Z,77.10
2023-03-18T03:04:09.212Z,76.70
2023-03-18T03:09:15.302Z,77.20
2023-03-18T03:14:18.258Z,77.20
2023-03-18T03:19:23.789Z,76.80
2023-03-18T03:24:26.485Z,76.60
2023-03-18T03:29:29.303Z,75.80
2023-03-18T03:34:31.674Z,76.80
2023-03-18T03:39:33.983Z,75.50
2023-03-18T03:44:36.537Z,75.70
2023-03-18T03:49:39.119Z,75.50
2023-03-18T03:54:41.953Z,75.40
2023-03-18T03:59:44.728Z,75.30
2023-03-18T04:04:51.661Z,75.10
2023-03-18T04:10:04.332Z,75.60
2023-03-18T04:15:08.254Z,75.50
2023-03-18T04:20:12.768Z,75.50
2023-03-18T04:25:15.472Z,75.40
2023-03-18T04:30:18.017Z,75.30
2023-03-18T04:35:43.577Z,74.70
2023-03-18T04:40:47.984Z,74.70
2023-03-18T04:45:50.788Z,74.50
2023-03-18T04:50:54.803Z,74.20
2023-03-18T04:56:01.800Z,74.40
2023-03-18T05:01:13.801Z,73.60
2023-03-18T05:06:26.954Z,74.00
2023-03-18T05:11:33.209Z,73.80
2023-03-18T05:16:43.338Z,74.70
2023-03-18T05:21:46.318Z,73.10
2023-03-18T05:26:49.474Z,72.80
2023-03-18T05:31:53.755Z,73.00
2023-03-18T05:36:57.722Z,73.80
2023-03-18T05:42:02.282Z,74.10
2023-03-18T05:47:05.448Z,74.00
2023-03-18T05:52:32.006Z,74.10
2023-03-18T05:57:38.785Z,73.70
2023-03-18T06:02:45.146Z,73.80
2023-03-18T06:07:49.211Z,73.80
2023-03-18T06:12:52.118Z,74.00
2023-03-18T06:17:54.483Z,73.40
2023-03-18T06:22:56.957Z,72.90
2023-03-18T06:28:01.992Z,73.10
2023-03-18T06:33:06.101Z,71.70
2023-03-18T06:38:10.719Z,71.50
2023-03-18T06:43:15.837Z,70.90
2023-03-18T06:48:20.344Z,71.50
2023-03-18T06:53:24.134Z,72.20
2023-03-18T06:58:27.438Z,71.70
2023-03-18T07:03:38.983Z,71.60
2023-03-18T07:08:42.633Z,70.90
2023-03-18T07:13:45.375Z,70.10
2023-03-18T07:18:54.939Z,69.40
2023-03-18T07:23:58.233Z,69.00
2023-03-18T07:29:00.723Z,68.80
2023-03-18T07:34:03.475Z,68.60
2023-03-18T07:39:07.902Z,68.40
2023-03-18T07:44:10.307Z,68.50
2023-03-18T07:49:12.602Z,67.80
2023-03-18T07:54:14.921Z,67.30
2023-03-18T07:59:18.661Z,67.30
2023-03-18T08:04:21.394Z,65.80
2023-03-18T08:09:24.283Z,65.00
2023-03-18T08:14:26.669Z,65.00
2023-03-18T08:19:29.647Z,63.80
2023-03-18T08:24:32.687Z,62.00
2023-03-18T08:29:35.422Z,62.40
2023-03-18T08:34:37.830Z,61.70
2023-03-18T08:39:41.317Z,61.90
2023-03-18T08:44:43.629Z,61.10
2023-03-18T08:49:46.243Z,59.30
2023-03-18T08:54:49.316Z,58.10
2023-03-18T08:59:51.914Z,57.30
2023-03-18T09:04:55.456Z,56.60
2023-03-18T09:09:57.711Z,57.20
2023-03-18T09:15:00.017Z,56.10
2023-03-18T09:20:02.713Z,54.50
2023-03-18T09:25:06.439Z,54.30
2023-03-18T09:30:09.431Z,54.70
2023-03-18T09:35:13.433Z,53.90
2023-03-18T09:40:28.960Z,55.20
2023-03-18T09:45:48.581Z,53.70
2023-03-18T09:51:09.007Z,54.50
2023-03-18T09:56:19.090Z,53.00
2023-03-18T10:01:24.327Z,53.50
2023-03-18T10:06:27.883Z,52.10
2023-03-18T10:11:42.922Z,50.80
2023-03-18T10:17:10.946Z,50.20
2023-03-18T10:22:16.416Z,50.50
2023-03-18T10:27:42.858Z,48.70
2023-03-18T10:32:53.484Z,48.40
2023-03-18T10:38:21.485Z,48.20
2023-03-18T10:43:29.122Z,48.10
2023-03-18T10:48:39.698Z,48.40
2023-03-18T10:54:03.709Z,48.30
2023-03-18T10:59:13.168Z,47.30
2023-03-18T11:04:19.101Z,47.40
2023-03-18T11:09:29.409Z,46.60
2023-03-18T11:14:32.517Z,47.30
2023-03-18T11:19:48.673Z,47.40
2023-03-18T11:25:11.896Z,47.00
2023-03-18T11:30:34.021Z,47.40
2023-03-18T11:35:46.198Z,49.20
2023-03-18T11:40:48.678Z,47.30
2023-03-18T11:46:05.098Z,45.40
2023-03-18T11:51:27.478Z,45.80
2023-03-18T11:56:34.267Z,46.80
2023-03-18T12:01:42.780Z,46.60
2023-03-18T12:07:15.504Z,45.90
2023-03-18T12:12:52.160Z,44.70
2023-03-18T12:18:09.620Z,43.70
2023-03-18T12:23:30.354Z,43.20
2023-03-18T12:28:53.056Z,42.40
2023-03-18T12:34:01.546Z,42.50
2023-03-18T12:39:22.843Z,42.20
2023-03-18T12:44:45.603Z,40.20
2023-03-18T12:50:17.933Z,40.70
2023-03-18T12:55:33.916Z,39.30
2023-03-18T13:00:49.123Z,40.30
2023-03-18T13:06:10.272Z,39.80
2023-03-18T13:11:32.511Z,38.50
2023-03-18T13:16:37.588Z,37.10
2023-03-18T13:21:44.870Z,37.50
2023-03-18T13:27:12.436Z,38.40
2023-03-18T13:32:30.312Z,38.00
2023-03-18T13:37:50.549Z,38.90
2023-03-18T13:42:59.065Z,39.10
2023-03-18T13:48:18.293Z,40.00
2023-03-18T13:53:42.911Z,41.30
2023-03-18T13:58:52.426Z,40.70
2023-03-18T14:03:58.722Z,39.70
2023-03-18T14:09:29.641Z,39.50
2023-03-18T14:14:51.355Z,39.10
2023-03-18T14:19:55.889Z,39.20
2023-03-18T14:25:13.284Z,39.10
2023-03-18T14:30:31.633Z,39.20
2023-03-18T14:35:47.812Z,36.60
2023-03-18T14:40:54.406Z,35.90
2023-03-18T14:46:02.859Z,36.50
2023-03-18T14:51:19.123Z,36.70
2023-03-18T14:56:29.502Z,37.50
2023-03-18T15:01:38.692Z,38.90
2023-03-18T15:06:41.572Z,40.80
2023-03-18T15:11:46.624Z,41.60
2023-03-18T15:16:50.989Z,42.60
2023-03-18T15:21:54.923Z,43.10
2023-03-18T15:27:00.207Z,43.50
2023-03-18T15:32:20.842Z,43.70
2023-03-18T15:37:34.178Z,44.80
2023-03-18T15:42:36.575Z,44.00
2023-03-18T15:47:43.501Z,44.50
2023-03-18T15:52:47.346Z,45.60
2023-03-18T15:57:53.371Z,45.40
2023-03-18T16:02:55.824Z,45.80
2023-03-18T16:07:59.417Z,46.20
2023-03-18T16:13:02.406Z,47.40
2023-03-18T16:18:05.009Z,48.30
2023-03-18T16:23:07.685Z,49.70
2023-03-18T16:28:25.995Z,51.40
2023-03-18T16:33:34.876Z,52.80
2023-03-18T16:38:37.772Z,53.90
2023-03-18T16:43:40.350Z,54.50
2023-03-18T16:48:42.658Z,54.60
2023-03-18T16:53:45.007Z,55.30
2023-03-18T16:58:47.334Z,56.60
2023-03-18T17:03:49.719Z,58.70
2023-03-18T17:08:53.437Z,60.10
2023-03-18T17:13:56.377Z,61.30
2023-03-18T17:18:58.994Z,63.50
2023-03-18T17:24:01.313Z,64.70
2023-03-18T17:29:04.883Z,65.10
2023-03-18T17:34:13.806Z,66.10
2023-03-18T17:39:16.446Z,65.00
2023-03-18T17:44:30.322Z,66.30
2023-03-18T17:49:32.704Z,67.10
2023-03-18T17:54:35.464Z,67.00
2023-03-18T17:59:37.778Z,66.40
2023-03-18T18:04:42.539Z,66.70
2023-03-18T18:09:46.050Z,67.70
2023-03-18T18:14:48.805Z,68.50
2023-03-18T18:19:51.346Z,70.30
2023-03-18T18:24:54.452Z,70.60
2023-03-18T18:29:56.958Z,71.40
2023-03-18T18:34:59.241Z,72.30
2023-03-18T18:40:01.596Z,73.70
2023-03-18T18:45:05.074Z,74.80
2023-03-18T18:50:13.026Z,76.10
2023-03-18T18:55:15.458Z,75.60
2023-03-18T19:00:21.900Z,76.50
2023-03-18T19:05:24.433Z,76.50
2023-03-18T19:10:26.747Z,77.90
2023-03-18T19:15:29.166Z,78.30
2023-03-18T19:20:31.624Z,80.60
2023-03-18T19:25:34.272Z,81.30
2023-03-18T19:30:37.200Z,81.40
2023-03-18T19:35:41.320Z,82.20
2023-03-18T19:40:43.848Z,82.50
2023-03-18T19:45:51.857Z,84.90
2023-03-18T19:50:56.711Z,87.50
2023-03-18T19:56:00.409Z,88.30
2023-03-18T20:01:04.206Z,90.40
2023-03-18T20:06:08.025Z,88.90
2023-03-18T20:11:16.366Z,90.40
2023-03-18T20:16:19.628Z,90.70
2023-03-18T20:21:30.958Z,91.10
2023-03-18T20:26:33.377Z,92.10
2023-03-18T20:31:36.596Z,92.00
2023-03-18T20:36:39.989Z,92.10
2023-03-18T20:41:42.338Z,92.80
2023-03-18T20:46:44.755Z,92.90
2023-03-18T20:51:47.145Z,93.50
2023-03-18T20:56:49.529Z,93.60
2023-03-18T21:01:52.036Z,93.60
2023-03-18T21:06:54.385Z,93.60
2023-03-18T21:11:56.678Z,94.20
2023-03-18T21:16:59.064Z,95.20
2023-03-18T21:22:01.574Z,95.30
2023-03-18T21:27:05.700Z,95.00
2023-03-18T21:32:29.925Z,96.80
2023-03-18T21:37:32.319Z,97.20
2023-03-18T21:42:35.446Z,97.80
2023-03-18T21:47:37.765Z,98.40
2023-03-18T21:52:40.150Z,98.30
2023-03-18T21:57:42.876Z,96.90
2023-03-18T22:02:45.412Z,97.90
2023-03-18T22:07:48.582Z,99.50
2023-03-18T22:12:51.303Z,99.90
2023-03-18T22:17:53.594Z,99.90
2023-03-18T22:22:56.337Z,99.90
2023-03-18T22:27:59.504Z,99.90
2023-03-18T22:33:03.770Z,99.90
2023-03-18T22:38:06.136Z,99.90
2023-03-18T22:43:21.934Z,99.90
2023-03-18T22:48:24.451Z,99.90
2023-03-18T22:53:34.204Z,99.90
2023-03-18T22:58:36.580Z,99.90
2023-03-18T23:03:40.499Z,99.90
2023-03-18T23:08:43.362Z,99.90
2023-03-18T23:13:49.960Z,99.90
2023-03-18T23:18:52.595Z,99.90
2023-03-18T23:23:56.775Z,99.90
2023-03-18T23:28:59.125Z,99.90
2023-03-18T23:34:01.441Z,99.90
2023-03-18T23:39:03.998Z,99.90
2023-03-18T23:44:06.800Z,99.90
2023-03-18T23:49:09.131Z,99.90
2023-03-18T23:54:11.868Z,99.90
2023-03-18T23:59:14.128Z,99.90
